Time;durP1;ratioP1;P1;durP2;ratioP2;P2;SDS_P1;SDS_P2;PMS_P1;PMS_P2;Temp;Humidity;BMP_temperature;BMP_pressure;BME280_temperature;BME280_humidity;BME280_pressure;Samples;Min_cycle;Max_cycle;Signal;HPM_P1;HPM_P2
2021/06/10 00:01:52;;;;;;;10.20;8.97;;;13.60;99.90;;;;;;4950777;29;20653;-82
2021/06/10 00:04:17;;;;;;;13.87;9.30;;;13.50;99.90;;;;;;4967839;29;20211;-82
2021/06/10 00:06:43;;;;;;;11.17;9.80;;;13.50;99.90;;;;;;4950798;29;20207;-82
2021/06/10 00:09:09;;;;;;;10.37;9.27;;;13.50;99.90;;;;;;4950152;29;20187;-82
2021/06/10 00:11:35;;;;;;;9.83;8.83;;;13.50;99.90;;;;;;4950433;29;20181;-82
2021/06/10 00:14:01;;;;;;;9.70;8.70;;;13.50;99.90;;;;;;4967600;29;20270;-82
2021/06/10 00:16:27;;;;;;;11.20;9.30;;;13.50;99.90;;;;;;4950480;29;20205;-82
2021/06/10 00:18:56;;;;;;;11.40;9.10;;;13.50;99.90;;;;;;4967867;29;20220;-82
2021/06/10 00:21:22;;;;;;;12.00;8.80;;;13.60;99.90;;;;;;4950158;29;20181;-82
2021/06/10 00:23:47;;;;;;;8.97;8.10;;;13.50;99.90;;;;;;4967173;29;20173;-82
2021/06/10 00:26:13;;;;;;;29.13;9.63;;;13.60;99.90;;;;;;4950572;29;20224;-82
2021/06/10 00:28:39;;;;;;;13.97;8.87;;;13.60;99.90;;;;;;4967402;29;20204;-82
2021/06/10 00:31:05;;;;;;;10.07;8.70;;;13.60;99.90;;;;;;4967195;29;20231;-82
2021/06/10 00:33:30;;;;;;;9.70;8.70;;;13.60;99.90;;;;;;4949770;29;20181;-82
2021/06/10 00:35:56;;;;;;;8.80;8.00;;;13.60;99.90;;;;;;4967921;29;20220;-82
2021/06/10 00:38:22;;;;;;;10.73;8.60;;;13.60;99.90;;;;;;4967839;29;20239;-82
2021/06/10 00:40:47;;;;;;;9.37;8.20;;;13.60;99.90;;;;;;4950304;29;20220;-82
2021/06/10 00:43:13;;;;;;;12.30;9.00;;;13.60;99.90;;;;;;4967954;29;20223;-82
2021/06/10 00:45:39;;;;;;;10.17;9.03;;;13.60;99.90;;;;;;4949579;29;20201;-83
2021/06/10 00:48:05;;;;;;;10.87;8.20;;;13.50;99.90;;;;;;4967178;29;20541;-82
2021/06/10 00:50:41;;;;;;;8.63;7.83;;;13.50;99.90;;;;;;4949657;29;20180;-82
2021/06/10 00:53:07;;;;;;;10.70;7.60;;;13.50;99.90;;;;;;4949841;29;20251;-82
2021/06/10 00:55:34;;;;;;;8.77;7.87;;;13.40;99.90;;;;;;4966604;29;20570;-82
2021/06/10 00:57:59;;;;;;;9.37;8.37;;;13.40;99.90;;;;;;4949719;29;20185;-82
2021/06/10 01:00:25;;;;;;;9.57;8.00;;;13.40;99.90;;;;;;4966608;29;20200;-82
2021/06/10 01:02:53;;;;;;;8.30;7.50;;;13.40;99.90;;;;;;4949305;29;20177;-82
2021/06/10 01:05:19;;;;;;;9.00;7.80;;;13.40;99.90;;;;;;4949892;29;20177;-82
2021/06/10 01:08:04;;;;;;;10.17;7.67;;;13.30;99.90;;;;;;4966677;29;20300;-82
2021/06/10 01:11:07;;;;;;;10.70;8.00;;;13.30;99.90;;;;;;4948932;29;20184;-83
2021/06/10 01:13:39;;;;;;;10.27;8.10;;;13.30;99.90;;;;;;4948297;29;20203;-82
2021/06/10 01:16:07;;;;;;;8.20;7.43;;;13.30;99.90;;;;;;4966083;29;20252;-82
2021/06/10 01:18:38;;;;;;;8.97;8.07;;;13.30;99.90;;;;;;4948474;29;20213;-83
2021/06/10 01:21:05;;;;;;;9.50;7.57;;;13.30;99.90;;;;;;4965540;28;20200;-82
2021/06/10 01:24:20;;;;;;;9.37;8.47;;;13.20;99.90;;;;;;4966197;29;20670;-82
2021/06/10 01:27:21;;;;;;;9.43;7.23;;;13.30;99.90;;;;;;4953792;29;20236;-83
2021/06/10 01:29:50;;;;;;;9.20;7.40;;;13.20;99.90;;;;;;4966874;29;20165;-83
2021/06/10 01:32:18;;;;;;;9.77;7.30;;;13.20;99.90;;;;;;4950376;29;20181;-82
2021/06/10 01:34:44;;;;;;;8.50;7.20;;;13.10;99.90;;;;;;4950298;29;20181;-83
2021/06/10 01:37:10;;;;;;;9.90;7.53;;;13.10;99.90;;;;;;4967150;29;20201;-84
2021/06/10 01:39:37;;;;;;;8.37;7.57;;;13.10;99.90;;;;;;4953632;29;20193;-82
2021/06/10 01:42:04;;;;;;;8.73;7.63;;;13.10;99.90;;;;;;4952819;29;20211;-83
2021/06/10 01:44:31;;;;;;;9.40;7.60;;;13.10;99.90;;;;;;4966449;29;20184;-83
2021/06/10 01:46:56;;;;;;;9.93;7.63;;;13.10;99.90;;;;;;4965608;29;20210;-83
2021/06/10 01:49:23;;;;;;;9.07;8.17;;;13.10;99.90;;;;;;4966201;29;20173;-83
2021/06/10 01:51:51;;;;;;;10.03;7.53;;;13.10;99.90;;;;;;4948028;29;20175;-83
2021/06/10 01:54:18;;;;;;;9.47;8.40;;;13.10;99.90;;;;;;4966468;29;20169;-83
2021/06/10 01:56:45;;;;;;;8.37;7.47;;;13.10;99.90;;;;;;4965738;29;20214;-83
2021/06/10 01:59:12;;;;;;;8.80;7.80;;;13.00;99.90;;;;;;4966050;29;20323;-83
2021/06/10 02:01:39;;;;;;;8.43;7.63;;;13.00;99.90;;;;;;4965543;29;20208;-83
2021/06/10 02:04:08;;;;;;;8.60;7.40;;;13.00;99.90;;;;;;4965637;29;20180;-83
2021/06/10 02:06:35;;;;;;;9.07;7.37;;;12.90;99.90;;;;;;4947604;29;20203;-83
2021/06/10 02:09:04;;;;;;;8.10;7.30;;;12.90;99.90;;;;;;4947973;29;20211;-83
2021/06/10 02:11:32;;;;;;;8.20;7.40;;;12.90;99.90;;;;;;4964466;29;20173;-83
2021/06/10 02:13:59;;;;;;;7.63;6.83;;;12.80;99.90;;;;;;4965007;29;20192;-83
2021/06/10 02:16:26;;;;;;;8.80;7.50;;;12.80;99.90;;;;;;4947531;29;20200;-83
2021/06/10 02:18:53;;;;;;;9.50;8.00;;;12.70;99.90;;;;;;4964527;29;20175;-83
2021/06/10 02:21:19;;;;;;;8.27;7.37;;;12.70;99.90;;;;;;4965252;29;20200;-83
2021/06/10 02:23:46;;;;;;;9.23;7.27;;;12.70;99.90;;;;;;4948054;29;20179;-83
2021/06/10 02:26:13;;;;;;;7.60;6.80;;;12.60;99.90;;;;;;4964536;29;20228;-83
2021/06/10 02:28:39;;;;;;;8.73;7.47;;;12.60;99.90;;;;;;4965618;29;20649;-83
2021/06/10 02:31:08;;;;;;;10.27;7.40;;;12.60;99.90;;;;;;4964956;29;20205;-83
2021/06/10 02:33:36;;;;;;;7.77;6.97;;;12.60;99.90;;;;;;4965159;29;20197;-83
2021/06/10 02:36:02;;;;;;;8.47;7.00;;;12.60;99.90;;;;;;4964819;29;20204;-83
2021/06/10 02:38:31;;;;;;;8.00;7.20;;;12.60;99.90;;;;;;4947782;29;20380;-83
2021/06/10 02:40:59;;;;;;;8.20;7.30;;;12.60;99.90;;;;;;4965728;29;20200;-83
2021/06/10 02:43:25;;;;;;;8.23;7.10;;;12.50;99.90;;;;;;4948243;29;20176;-83
2021/06/10 02:45:52;;;;;;;7.60;6.80;;;12.50;99.90;;;;;;4947824;29;20205;-83
2021/06/10 02:48:18;;;;;;;7.17;6.47;;;12.50;99.90;;;;;;4948131;29;20177;-83
2021/06/10 02:50:47;;;;;;;7.83;7.03;;;12.50;99.90;;;;;;4965137;29;20176;-83
2021/06/10 02:53:16;;;;;;;8.57;7.47;;;12.50;99.90;;;;;;4948062;29;20200;-83
2021/06/10 02:55:46;;;;;;;8.73;7.83;;;12.50;99.90;;;;;;4947746;29;20272;-83
2021/06/10 02:58:18;;;;;;;13.10;8.30;;;12.50;99.90;;;;;;4965189;29;20187;-83
2021/06/10 03:00:44;;;;;;;9.20;7.43;;;12.50;99.90;;;;;;4965169;29;20192;-82
2021/06/10 03:03:13;;;;;;;9.47;7.40;;;12.40;99.90;;;;;;4947182;29;20239;-83
2021/06/10 03:05:41;;;;;;;10.33;7.53;;;12.40;99.90;;;;;;4948000;29;20203;-83
2021/06/10 03:08:13;;;;;;;9.30;8.10;;;12.40;99.90;;;;;;4947942;29;20184;-83
2021/06/10 03:10:39;;;;;;;10.67;7.47;;;12.40;99.90;;;;;;4964959;29;20181;-83
2021/06/10 03:13:06;;;;;;;8.97;7.13;;;12.40;99.90;;;;;;4964053;29;20559;-82
2021/06/10 03:15:34;;;;;;;8.13;7.33;;;12.30;99.90;;;;;;4947698;29;20208;-83
2021/06/10 03:18:01;;;;;;;10.20;8.20;;;12.30;99.90;;;;;;4964269;29;20260;-83
2021/06/10 03:20:27;;;;;;;10.07;7.73;;;12.30;99.90;;;;;;4948086;29;20753;-83
2021/06/10 03:22:54;;;;;;;9.43;7.57;;;12.30;99.90;;;;;;4966695;29;20351;-83
2021/06/10 03:25:21;;;;;;;8.63;7.70;;;12.30;99.90;;;;;;4964678;29;20245;-82
2021/06/10 03:27:48;;;;;;;11.37;7.63;;;12.30;99.90;;;;;;4947959;29;20308;-83
2021/06/10 03:30:15;;;;;;;8.17;7.37;;;12.30;99.90;;;;;;4949582;29;20185;-83
2021/06/10 03:32:41;;;;;;;8.43;7.40;;;12.30;99.90;;;;;;4950053;29;20279;-83
2021/06/10 03:35:08;;;;;;;9.10;7.77;;;12.20;99.90;;;;;;4947418;29;20184;-83
2021/06/10 03:37:36;;;;;;;8.50;7.60;;;12.20;99.90;;;;;;4965853;29;20236;-83
2021/06/10 03:40:04;;;;;;;8.53;7.63;;;12.30;99.90;;;;;;4966203;29;20211;-84
2021/06/10 03:42:31;;;;;;;9.27;7.13;;;12.20;99.90;;;;;;4949037;29;20181;-83
2021/06/10 03:44:58;;;;;;;9.43;7.53;;;12.20;99.90;;;;;;4951337;29;20236;-83
2021/06/10 03:47:24;;;;;;;9.47;8.47;;;12.20;99.90;;;;;;4951989;29;20208;-83
2021/06/10 03:49:50;;;;;;;8.80;7.90;;;12.30;99.90;;;;;;4952811;29;20180;-83
2021/06/10 03:52:15;;;;;;;12.90;7.97;;;12.30;99.90;;;;;;4951847;29;20200;-83
2021/06/10 03:54:41;;;;;;;9.10;8.13;;;12.30;99.90;;;;;;4968826;29;20236;-83
2021/06/10 03:57:10;;;;;;;10.43;7.43;;;12.40;99.90;;;;;;4950989;29;20200;-83
2021/06/10 03:59:36;;;;;;;8.50;7.43;;;12.40;99.90;;;;;;4949847;29;20212;-83
2021/06/10 04:02:02;;;;;;;7.97;7.17;;;12.40;99.90;;;;;;4949972;29;20177;-83
2021/06/10 04:04:28;;;;;;;9.00;7.80;;;12.50;99.90;;;;;;4967770;29;20247;-83
2021/06/10 04:06:55;;;;;;;8.57;7.63;;;12.50;99.90;;;;;;4949370;29;20244;-83
2021/06/10 04:09:21;;;;;;;9.30;6.83;;;12.50;99.90;;;;;;4949800;29;20542;-84
2021/06/10 04:11:47;;;;;;;8.60;6.93;;;12.60;99.90;;;;;;4945950;29;20182;-83
2021/06/10 04:14:13;;;;;;;8.37;6.93;;;12.60;99.90;;;;;;4945675;29;20207;-83
2021/06/10 04:16:39;;;;;;;8.10;7.30;;;12.60;99.90;;;;;;4949517;29;20232;-83
2021/06/10 04:19:04;;;;;;;9.80;7.23;;;12.60;99.90;;;;;;4967046;29;20181;-83
2021/06/10 04:21:30;;;;;;;7.30;6.60;;;12.70;99.90;;;;;;4949787;29;20698;-83
2021/06/10 04:23:56;;;;;;;7.43;6.67;;;12.70;99.90;;;;;;4950038;29;20185;-83
2021/06/10 04:26:21;;;;;;;8.20;6.87;;;12.70;99.90;;;;;;4949721;29;20212;-83
2021/06/10 04:28:48;;;;;;;8.93;7.23;;;12.80;99.90;;;;;;4949946;29;20236;-83
2021/06/10 04:31:16;;;;;;;8.80;7.20;;;12.80;99.90;;;;;;4967044;29;20211;-83
2021/06/10 04:33:42;;;;;;;7.73;7.00;;;12.90;99.90;;;;;;4966783;29;20185;-83
2021/06/10 04:36:10;;;;;;;9.27;6.47;;;12.90;99.90;;;;;;4949822;29;20228;-83
2021/06/10 04:38:36;;;;;;;8.10;7.03;;;13.00;99.90;;;;;;4949579;29;20560;-84
2021/06/10 04:41:02;;;;;;;8.33;6.43;;;13.00;99.90;;;;;;4966520;29;20662;-83
2021/06/10 04:43:28;;;;;;;7.27;6.57;;;13.10;99.90;;;;;;4949063;29;20187;-84
2021/06/10 04:45:53;;;;;;;9.07;7.20;;;13.10;99.90;;;;;;4948599;29;20205;-83
2021/06/10 04:48:19;;;;;;;7.40;6.70;;;13.20;99.90;;;;;;4966397;29;20196;-84
2021/06/10 04:50:45;;;;;;;7.60;6.30;;;13.30;99.90;;;;;;4966388;29;20185;-83
2021/06/10 04:53:10;;;;;;;7.97;6.10;;;13.40;99.90;;;;;;4966264;29;20180;-83
2021/06/10 04:55:36;;;;;;;6.87;6.17;;;13.50;99.90;;;;;;4965913;28;20544;-83
2021/06/10 04:58:02;;;;;;;8.80;6.47;;;13.60;99.90;;;;;;4968927;29;20231;-83
2021/06/10 05:00:28;;;;;;;7.60;6.40;;;13.70;99.90;;;;;;4964669;29;20221;-83
2021/06/10 05:02:53;;;;;;;6.90;6.23;;;13.90;99.90;;;;;;4947207;29;20191;-83
2021/06/10 05:05:19;;;;;;;7.73;6.30;;;14.10;99.90;;;;;;4963985;29;20233;-83
2021/06/10 05:07:45;;;;;;;7.37;6.57;;;14.20;99.90;;;;;;4963691;29;20177;-84
2021/06/10 05:10:11;;;;;;;7.07;6.37;;;14.40;99.90;;;;;;4964188;29;20267;-83
2021/06/10 05:12:37;;;;;;;6.93;6.20;;;14.60;99.90;;;;;;4947191;29;20177;-84
2021/06/10 05:15:06;;;;;;;9.13;5.77;;;14.70;99.90;;;;;;4964804;29;20662;-84
2021/06/10 05:17:32;;;;;;;7.33;6.00;;;14.80;99.90;;;;;;4964535;29;20201;-83
2021/06/10 05:19:57;;;;;;;6.63;5.90;;;14.80;99.90;;;;;;4965450;29;20216;-84
2021/06/10 05:22:23;;;;;;;9.17;6.00;;;14.60;99.90;;;;;;4947066;29;20268;-83
2021/06/10 05:24:49;;;;;;;7.30;5.83;;;14.60;99.90;;;;;;4946480;29;20184;-83
2021/06/10 05:27:14;;;;;;;7.57;6.20;;;14.60;99.90;;;;;;4966023;29;20615;-83
2021/06/10 05:29:40;;;;;;;6.37;5.77;;;14.60;99.90;;;;;;4964256;29;20177;-83
2021/06/10 05:32:09;;;;;;;6.00;5.47;;;14.60;99.90;;;;;;4948465;29;20181;-84
2021/06/10 05:34:34;;;;;;;6.67;5.97;;;14.70;99.90;;;;;;4964517;29;20181;-84
2021/06/10 05:37:00;;;;;;;6.53;5.63;;;14.70;99.90;;;;;;4947508;29;20678;-83
2021/06/10 05:39:26;;;;;;;6.20;5.60;;;14.80;99.90;;;;;;4948722;29;20264;-84
2021/06/10 05:41:53;;;;;;;6.47;5.70;;;14.80;99.90;;;;;;4947651;29;20184;-84
2021/06/10 05:44:19;;;;;;;6.40;5.63;;;14.90;99.90;;;;;;4948194;29;20268;-82
2021/06/10 05:46:46;;;;;;;7.40;6.10;;;15.00;99.90;;;;;;4965844;29;20197;-84
2021/06/10 05:49:12;;;;;;;8.60;5.80;;;15.10;99.90;;;;;;4949682;29;20181;-85
2021/06/10 05:51:37;;;;;;;5.97;5.03;;;15.20;99.90;;;;;;4950566;29;20181;-85
2021/06/10 05:54:03;;;;;;;9.27;5.53;;;15.30;99.90;;;;;;4967566;29;20173;-85
2021/06/10 05:56:29;;;;;;;8.00;5.27;;;15.40;99.90;;;;;;4950388;29;20193;-85
2021/06/10 05:58:54;;;;;;;6.07;4.80;;;15.40;99.90;;;;;;4949703;29;20274;-84
2021/06/10 06:01:20;;;;;;;5.70;5.20;;;15.50;99.90;;;;;;4966985;29;20260;-85
2021/06/10 06:03:46;;;;;;;5.93;5.30;;;15.50;99.90;;;;;;4963324;29;20204;-84
2021/06/10 06:06:11;;;;;;;6.30;5.70;;;15.50;99.90;;;;;;4965622;28;20202;-84
2021/06/10 06:08:37;;;;;;;6.80;5.73;;;15.50;99.90;;;;;;4966547;29;20173;-85
2021/06/10 06:11:03;;;;;;;9.53;5.93;;;15.50;99.90;;;;;;4948026;29;20662;-83
2021/06/10 06:13:44;;;;;;;8.80;5.77;;;15.50;99.90;;;;;;4948917;29;20192;-84
2021/06/10 06:16:10;;;;;;;8.40;5.80;;;15.60;99.90;;;;;;4966725;29;20223;-85
2021/06/10 06:18:37;;;;;;;6.20;5.37;;;15.70;99.90;;;;;;4949555;29;20180;-85
2021/06/10 06:21:03;;;;;;;6.43;5.50;;;15.70;99.90;;;;;;4966267;29;20256;-84
2021/06/10 06:23:30;;;;;;;6.43;5.50;;;15.70;99.90;;;;;;4949085;29;20521;-84
2021/06/10 06:25:56;;;;;;;6.00;5.40;;;15.70;99.90;;;;;;4961407;29;20197;-84
2021/06/10 06:28:22;;;;;;;6.10;5.50;;;15.90;99.90;;;;;;4958671;29;20169;-84
2021/06/10 06:30:47;;;;;;;6.23;5.63;;;15.90;99.90;;;;;;4949336;29;20177;-84
2021/06/10 06:33:13;;;;;;;7.40;5.53;;;16.10;99.90;;;;;;4967074;29;20645;-84
2021/06/10 06:35:41;;;;;;;7.63;6.03;;;16.10;99.90;;;;;;4967775;29;20201;-85
2021/06/10 06:38:07;;;;;;;9.23;6.37;;;16.30;99.90;;;;;;4967707;29;20224;-84
2021/06/10 06:40:33;;;;;;;8.13;5.93;;;16.40;99.90;;;;;;4949730;29;20230;-84
2021/06/10 06:42:58;;;;;;;8.37;5.97;;;16.60;99.90;;;;;;4967170;29;20173;-84
2021/06/10 06:45:24;;;;;;;7.50;5.73;;;16.90;99.90;;;;;;4948617;29;20649;-84
2021/06/10 06:47:50;;;;;;;8.40;5.80;;;17.00;99.90;;;;;;4966824;29;20173;-84
2021/06/10 06:50:16;;;;;;;7.13;6.07;;;17.10;99.90;;;;;;4967641;29;20197;-84
2021/06/10 06:52:42;;;;;;;7.47;5.60;;;17.20;99.90;;;;;;4949648;29;20206;-84
2021/06/10 06:55:08;;;;;;;7.13;6.17;;;17.30;99.90;;;;;;4967113;29;20201;-84
2021/06/10 06:57:34;;;;;;;8.17;6.30;;;17.30;99.90;;;;;;4949787;29;20672;-84
2021/06/10 06:59:59;;;;;;;8.23;6.27;;;17.30;99.90;;;;;;4949742;29;20227;-84
2021/06/10 07:02:25;;;;;;;7.53;6.83;;;17.40;99.90;;;;;;4967063;29;20639;-84
2021/06/10 07:04:51;;;;;;;8.40;7.43;;;17.60;99.90;;;;;;4948925;29;20189;-84
2021/06/10 07:07:16;;;;;;;9.93;7.73;;;17.70;99.90;;;;;;4966431;29;20190;-84
2021/06/10 07:09:42;;;;;;;11.90;8.03;;;17.80;99.90;;;;;;4949072;29;20177;-84
2021/06/10 07:12:08;;;;;;;10.20;7.50;;;17.80;99.90;;;;;;4966546;29;20536;-84
2021/06/10 07:14:35;;;;;;;8.73;7.77;;;17.90;99.90;;;;;;4948594;29;20264;-84
2021/06/10 07:17:00;;;;;;;8.53;6.77;;;18.00;99.90;;;;;;4949973;28;20234;-84
2021/06/10 07:19:26;;;;;;;10.87;7.40;;;18.10;99.90;;;;;;4967406;29;20204;-84
2021/06/10 07:21:52;;;;;;;9.20;7.73;;;18.30;99.90;;;;;;4967859;29;20212;-84
2021/06/10 07:24:18;;;;;;;8.23;7.43;;;18.30;99.90;;;;;;4948824;29;20294;-84
2021/06/10 07:26:44;;;;;;;8.70;7.90;;;18.30;99.90;;;;;;4966385;29;20215;-85
2021/06/10 07:29:11;;;;;;;9.53;7.73;;;18.30;99.90;;;;;;4950107;29;20205;-84
2021/06/10 07:31:37;;;;;;;12.90;9.20;;;18.50;99.90;;;;;;4949491;29;20180;-84
2021/06/10 07:34:05;;;;;;;9.17;8.20;;;18.60;99.90;;;;;;4949634;29;20177;-84
2021/06/10 07:36:31;;;;;;;12.20;8.53;;;18.70;99.90;;;;;;4949251;29;20585;-84
2021/06/10 07:38:57;;;;;;;10.43;8.20;;;19.00;99.90;;;;;;4967313;29;20197;-84
2021/06/10 07:41:22;;;;;;;9.00;8.03;;;19.30;99.90;;;;;;4966966;29;20205;-84
2021/06/10 07:43:48;;;;;;;9.97;7.63;;;19.50;99.90;;;;;;4948299;29;20186;-84
2021/06/10 07:46:13;;;;;;;9.30;7.70;;;19.40;99.90;;;;;;4949632;29;20197;-84
2021/06/10 07:48:39;;;;;;;7.83;7.03;;;19.40;99.90;;;;;;4949875;29;20174;-84
2021/06/10 07:51:06;;;;;;;8.77;7.87;;;19.30;99.90;;;;;;4949298;29;20186;-84
2021/06/10 07:53:37;;;;;;;8.67;7.70;;;19.30;99.90;;;;;;4967341;29;20173;-84
2021/06/10 07:56:04;;;;;;;9.47;8.20;;;19.50;99.90;;;;;;4974143;29;20212;-84
2021/06/10 07:58:31;;;;;;;8.53;7.73;;;19.50;99.90;;;;;;4970563;29;20664;-84
2021/06/10 08:00:57;;;;;;;9.27;7.63;;;19.70;99.90;;;;;;4969355;29;20612;-85
2021/06/10 08:03:23;;;;;;;8.13;7.30;;;19.70;99.90;;;;;;4951814;29;20199;-85
2021/06/10 08:05:49;;;;;;;8.00;7.20;;;19.70;99.90;;;;;;4951486;29;20674;-85
2021/06/10 08:08:15;;;;;;;10.57;7.97;;;19.60;99.90;;;;;;4950227;29;20187;-84
2021/06/10 08:10:41;;;;;;;8.73;7.83;;;19.70;99.90;;;;;;4967454;29;20205;-84
2021/06/10 08:13:10;;;;;;;9.37;7.53;;;19.70;99.90;;;;;;4967336;29;20203;-85
2021/06/10 08:15:36;;;;;;;9.73;8.27;;;19.70;99.90;;;;;;4942883;29;20201;-84
2021/06/10 08:18:03;;;;;;;9.70;8.43;;;19.60;99.90;;;;;;4944944;29;20188;-85
2021/06/10 08:20:30;;;;;;;8.40;7.30;;;19.60;99.90;;;;;;4949572;29;20211;-85
2021/06/10 08:22:59;;;;;;;10.57;8.43;;;19.90;99.90;;;;;;4950030;29;20177;-85
2021/06/10 08:25:28;;;;;;;9.50;8.10;;;20.00;99.90;;;;;;4949234;29;20714;-84
2021/06/10 08:27:54;;;;;;;9.73;7.27;;;20.30;99.90;;;;;;4949642;29;20184;-85
2021/06/10 08:30:20;;;;;;;7.87;7.07;;;20.60;99.90;;;;;;4967083;28;20238;-84
2021/06/10 08:32:46;;;;;;;7.63;6.93;;;21.00;99.90;;;;;;4950358;29;20184;-85
2021/06/10 08:35:12;;;;;;;7.07;6.47;;;21.50;99.90;;;;;;4949699;29;20189;-84
2021/06/10 08:37:38;;;;;;;7.83;7.13;;;21.90;99.90;;;;;;4967031;29;20195;-84
2021/06/10 08:40:08;;;;;;;10.60;6.80;;;22.30;99.90;;;;;;4966605;29;20260;-85
2021/06/10 08:42:37;;;;;;;8.37;7.60;;;22.50;99.90;;;;;;4950160;29;20192;-85
2021/06/10 08:45:18;;;;;;;7.37;6.67;;;21.90;99.90;;;;;;4949375;29;20178;-84
2021/06/10 08:47:46;;;;;;;7.40;6.70;;;21.30;99.90;;;;;;4948565;29;20174;-85
2021/06/10 08:50:18;;;;;;;8.87;7.50;;;20.90;99.90;;;;;;4966894;29;20186;-85
2021/06/10 08:52:43;;;;;;;8.70;7.13;;;20.60;99.90;;;;;;4950173;29;20178;-85
2021/06/10 08:55:09;;;;;;;7.40;6.77;;;20.30;99.90;;;;;;4967251;29;20319;-85
2021/06/10 08:57:35;;;;;;;7.17;6.37;;;20.30;99.90;;;;;;4967544;29;20266;-85
2021/06/10 09:00:02;;;;;;;7.97;7.10;;;20.70;99.90;;;;;;4949177;29;20204;-85
2021/06/10 09:02:28;;;;;;;9.20;7.50;;;20.70;99.90;;;;;;4949389;29;20216;-85
2021/06/10 09:05:11;;;;;;;8.10;7.37;;;20.60;99.90;;;;;;4967401;29;20185;-85
2021/06/10 09:07:38;;;;;;;7.07;6.37;;;20.40;99.90;;;;;;4948205;29;20185;-85
2021/06/10 09:10:06;;;;;;;7.93;6.90;;;20.40;99.90;;;;;;4965228;29;20181;-85
2021/06/10 09:12:55;;;;;;;7.87;6.20;;;20.40;99.90;;;;;;4948307;29;20639;-85
2021/06/10 09:15:23;;;;;;;8.87;7.43;;;20.40;99.90;;;;;;4948562;29;20191;-84
2021/06/10 09:17:51;;;;;;;7.17;6.50;;;20.50;99.90;;;;;;4948635;29;20267;-84
2021/06/10 09:20:19;;;;;;;7.13;6.50;;;20.50;99.90;;;;;;4948090;29;20215;-85
2021/06/10 09:22:46;;;;;;;7.00;6.30;;;20.60;99.90;;;;;;4966067;29;20176;-84
2021/06/10 09:25:16;;;;;;;9.00;6.30;;;20.60;99.90;;;;;;4948596;29;20782;-85
2021/06/10 09:27:54;;;;;;;8.03;6.50;;;20.70;99.90;;;;;;4965868;29;20181;-84
2021/06/10 09:30:37;;;;;;;7.13;6.43;;;20.70;99.90;;;;;;4966314;29;20639;-85
2021/06/10 09:33:08;;;;;;;7.10;6.40;;;20.70;99.90;;;;;;4948777;29;20264;-85
2021/06/10 09:35:36;;;;;;;6.73;6.13;;;20.70;99.90;;;;;;4966192;29;20600;-85
2021/06/10 09:38:15;;;;;;;6.40;5.80;;;20.70;99.90;;;;;;4965525;29;20184;-84
2021/06/10 09:40:41;;;;;;;6.20;5.60;;;20.70;99.90;;;;;;4946294;29;20211;-84
2021/06/10 09:43:07;;;;;;;8.17;6.00;;;21.60;99.90;;;;;;4965209;29;20539;-85
2021/06/10 09:45:33;;;;;;;11.77;6.93;;;22.50;99.90;;;;;;4947420;29;20197;-84
2021/06/10 09:48:04;;;;;;;7.30;6.60;;;23.20;99.90;;;;;;4947475;29;20169;-84
2021/06/10 09:50:43;;;;;;;6.57;5.97;;;23.10;99.90;;;;;;4964824;29;20173;-84
2021/06/10 09:53:18;;;;;;;7.40;6.10;;;23.30;99.90;;;;;;4965196;29;20581;-82
2021/06/10 09:55:53;;;;;;;8.37;6.00;;;23.60;99.90;;;;;;4947353;29;20221;-84
2021/06/10 09:58:24;;;;;;;6.90;6.13;;;23.10;99.90;;;;;;4947120;29;20685;-84
2021/06/10 10:00:55;;;;;;;7.10;6.10;;;22.50;99.90;;;;;;4964335;29;20204;-84
2021/06/10 10:03:24;;;;;;;6.50;5.80;;;22.10;99.90;;;;;;4946908;29;20593;-85
2021/06/10 10:05:51;;;;;;;5.97;5.37;;;21.70;99.90;;;;;;4964522;29;20193;-84
2021/06/10 10:08:17;;;;;;;11.93;6.23;;;21.50;99.90;;;;;;4964434;29;20632;-84
2021/06/10 10:10:44;;;;;;;8.27;5.93;;;21.40;99.90;;;;;;4946309;29;20213;-83
2021/06/10 10:13:14;;;;;;;6.70;6.10;;;21.50;99.90;;;;;;4946347;29;20201;-85
2021/06/10 10:15:39;;;;;;;8.77;5.30;;;21.50;99.90;;;;;;4945943;29;20256;-84
2021/06/10 10:18:07;;;;;;;6.53;5.67;;;21.80;99.90;;;;;;4963826;29;20178;-84
2021/06/10 10:20:32;;;;;;;8.20;6.10;;;22.70;99.90;;;;;;4963002;29;20561;-84
2021/06/10 10:22:59;;;;;;;5.57;5.07;;;23.50;99.90;;;;;;4964004;29;20174;-84
2021/06/10 10:25:25;;;;;;;8.00;5.23;;;24.20;99.90;;;;;;4963635;29;20233;-84
2021/06/10 10:27:52;;;;;;;5.20;4.80;;;24.70;99.90;;;;;;4946455;29;20512;-82
2021/06/10 10:30:23;;;;;;;5.67;5.13;;;25.20;99.90;;;;;;4965344;29;20194;-82
2021/06/10 10:32:48;;;;;;;5.47;4.90;;;25.60;99.90;;;;;;4965873;29;20256;-82
2021/06/10 10:35:23;;;;;;;5.23;4.47;;;25.90;99.90;;;;;;4947918;29;20215;-82
2021/06/10 10:37:50;;;;;;;5.03;4.53;;;25.90;99.90;;;;;;4947748;29;20674;-85
2021/06/10 10:40:28;;;;;;;6.27;4.63;;;26.10;99.90;;;;;;4947637;29;20205;-85
2021/06/10 10:43:08;;;;;;;4.50;4.10;;;26.20;99.90;;;;;;4965747;29;20199;-85
2021/06/10 10:45:34;;;;;;;5.03;4.33;;;26.20;99.90;;;;;;4966019;29;20222;-85
2021/06/10 10:48:08;;;;;;;4.87;4.43;;;26.50;99.90;;;;;;4948415;29;20188;-82
2021/06/10 10:50:39;;;;;;;4.70;4.30;;;26.70;99.90;;;;;;4949116;29;20289;-83
2021/06/10 10:53:21;;;;;;;4.63;4.23;;;26.50;99.90;;;;;;4968850;28;20177;-85
2021/06/10 10:56:03;;;;;;;5.00;4.20;;;25.90;99.90;;;;;;4953180;29;20204;-82
2021/06/10 10:58:28;;;;;;;5.00;3.90;;;24.90;99.90;;;;;;4969987;29;20658;-85
2021/06/10 11:00:56;;;;;;;4.10;3.70;;;24.20;99.90;;;;;;4969721;29;20215;-85
2021/06/10 11:03:32;;;;;;;4.10;3.67;;;23.80;99.90;;;;;;4970596;29;20264;-82
2021/06/10 11:06:19;;;;;;;5.10;3.60;;;23.60;99.90;;;;;;4969963;29;20585;-85
2021/06/10 11:09:12;;;;;;;4.87;4.37;;;23.40;99.90;;;;;;4952322;29;20183;-85
2021/06/10 11:11:54;;;;;;;4.00;3.70;;;24.00;99.90;;;;;;4951672;29;20252;-83
2021/06/10 11:14:50;;;;;;;4.03;3.73;;;25.00;99.90;;;;;;4969221;29;20191;-82
2021/06/10 11:17:31;;;;;;;4.17;3.73;;;26.00;99.90;;;;;;4969565;29;20210;-84
2021/06/10 11:20:08;;;;;;;3.60;3.30;;;26.80;99.90;;;;;;4954410;29;20302;-85
2021/06/10 11:22:45;;;;;;;4.07;3.67;;;27.50;99.90;;;;;;4953407;29;20168;-85
2021/06/10 11:25:36;;;;;;;3.53;3.23;;;27.90;99.90;;;;;;4970573;29;20198;-85
2021/06/10 11:28:14;;;;;;;4.43;3.60;;;28.30;99.90;;;;;;4971354;29;20188;-85
2021/06/10 11:30:40;;;;;;;3.67;3.10;;;27.40;96.50;;;;;;4953102;29;20276;-85
2021/06/10 11:33:22;;;;;;;5.30;3.43;;;26.60;99.90;;;;;;4971121;29;20237;-83
2021/06/10 11:36:01;;;;;;;5.07;3.53;;;27.20;99.90;;;;;;4970264;29;20217;-84
2021/06/10 11:38:37;;;;;;;4.17;3.87;;;28.30;99.00;;;;;;4955503;29;20185;-85
2021/06/10 11:41:08;;;;;;;3.40;3.10;;;28.90;99.90;;;;;;4955785;29;20610;-85
2021/06/10 11:43:37;;;;;;;5.53;3.83;;;29.60;98.40;;;;;;4956917;29;20604;-83
2021/06/10 11:46:15;;;;;;;4.60;3.67;;;29.90;95.20;;;;;;4974589;29;20195;-85
2021/06/10 11:48:41;;;;;;;3.80;3.50;;;30.20;91.50;;;;;;4953455;29;20260;-84
2021/06/10 11:51:30;;;;;;;5.97;3.83;;;30.20;93.30;;;;;;4968884;29;20185;-84
2021/06/10 11:54:11;;;;;;;3.97;3.63;;;30.50;93.70;;;;;;4969404;29;20254;-84
2021/06/10 11:56:37;;;;;;;3.87;3.50;;;30.50;93.40;;;;;;4952547;29;20225;-84
2021/06/10 11:59:22;;;;;;;3.60;3.30;;;31.00;93.40;;;;;;4952751;29;20591;-84
2021/06/10 12:02:11;;;;;;;6.30;3.90;;;31.40;94.00;;;;;;4951899;29;20189;-83
2021/06/10 12:04:40;;;;;;;4.13;3.73;;;30.60;90.40;;;;;;4950169;29;20598;-83
2021/06/10 12:07:08;;;;;;;7.33;3.77;;;29.50;94.50;;;;;;4951419;29;20197;-83
2021/06/10 12:09:34;;;;;;;4.00;3.70;;;28.90;91.00;;;;;;4961111;29;20547;-79
2021/06/10 12:12:00;;;;;;;3.50;3.20;;;28.30;92.70;;;;;;4959818;29;20200;-78
2021/06/10 12:14:39;;;;;;;4.17;3.27;;;28.30;92.10;;;;;;4958096;29;20269;-77
2021/06/10 12:17:07;;;;;;;4.03;3.73;;;28.90;91.20;;;;;;4958254;29;20552;-77
2021/06/10 12:19:33;;;;;;;5.57;3.67;;;30.10;92.30;;;;;;4958345;29;20189;-78
2021/06/10 12:22:00;;;;;;;4.03;3.63;;;31.10;88.70;;;;;;4958444;29;20641;-77
2021/06/10 12:24:26;;;;;;;4.07;3.60;;;31.40;83.50;;;;;;4960783;29;20188;-79
2021/06/10 12:26:51;;;;;;;4.30;3.60;;;31.60;81.00;;;;;;4960109;29;20191;-77
2021/06/10 12:29:17;;;;;;;6.23;3.43;;;32.10;85.40;;;;;;4959624;29;20594;-77
2021/06/10 12:31:43;;;;;;;7.63;3.60;;;32.80;80.00;;;;;;4959035;29;20185;-78
2021/06/10 12:34:10;;;;;;;3.90;3.60;;;33.30;80.00;;;;;;4960296;29;20177;-78
2021/06/10 12:36:38;;;;;;;3.67;3.37;;;33.20;76.40;;;;;;4940789;29;20674;-77
2021/06/10 12:39:18;;;;;;;4.30;3.90;;;33.00;75.20;;;;;;4958275;29;20211;-77
2021/06/10 12:41:49;;;;;;;4.00;3.70;;;32.80;74.60;;;;;;4958608;29;20204;-77
2021/06/10 12:44:34;;;;;;;3.73;3.40;;;32.70;77.20;;;;;;4944630;29;20261;-85
2021/06/10 12:47:02;;;;;;;5.00;3.90;;;32.70;76.70;;;;;;4951382;29;20230;-81
2021/06/10 12:49:40;;;;;;;4.20;3.83;;;32.70;74.30;;;;;;4967990;29;20149;-81
2021/06/10 12:52:13;;;;;;;5.20;3.83;;;32.50;76.20;;;;;;4967967;29;20179;-81
2021/06/10 12:54:43;;;;;;;4.00;3.70;;;32.30;78.90;;;;;;4950041;29;20215;-80